createdAt,value
2022-10-11T00:00:44.765Z,3.88
2022-10-11T00:03:14.623Z,3.78
2022-10-11T00:05:43.995Z,4.32
2022-10-11T00:08:12.664Z,3.83
2022-10-11T00:10:41.538Z,3.67
2022-10-11T00:13:09.882Z,4.25
2022-10-11T00:15:40.698Z,4.13
2022-10-11T00:18:08.718Z,4.28
2022-10-11T00:20:36.710Z,4.63
2022-10-11T00:23:04.714Z,3.85
2022-10-11T00:25:32.966Z,4.45
2022-10-11T00:28:00.926Z,5.03
2022-10-11T00:30:28.962Z,5.90
2022-10-11T00:32:58.350Z,5.50
2022-10-11T00:35:26.698Z,5.88
2022-10-11T00:37:58.237Z,5.55
2022-10-11T00:40:26.493Z,6.03
2022-10-11T00:42:54.478Z,5.63
2022-10-11T00:45:59.782Z,4.88
2022-10-11T00:48:34.374Z,5.45
2022-10-11T00:51:05.970Z,5.70
2022-10-11T00:53:34.814Z,5.47
2022-10-11T00:56:08.126Z,4.53
2022-10-11T00:58:38.053Z,5.25
2022-10-11T01:01:06.437Z,5.43
2022-10-11T01:03:37.155Z,5.28
2022-10-11T01:06:05.928Z,4.75
2022-10-11T01:08:35.195Z,5.05
2022-10-11T01:11:04.501Z,4.93
2022-10-11T01:13:45.502Z,5.82
2022-10-11T01:16:18.425Z,5.47
2022-10-11T01:18:53.270Z,5.28
2022-10-11T01:21:33.342Z,5.45
2022-10-11T01:24:23.591Z,5.28
2022-10-11T01:27:37.474Z,5.93
2022-10-11T01:30:25.504Z,5.38
2022-10-11T01:33:05.182Z,5.18
2022-10-11T01:35:39.289Z,5.65
2022-10-11T01:38:14.495Z,5.53
2022-10-11T01:40:48.133Z,5.68
2022-10-11T01:43:17.767Z,4.45
2022-10-11T01:45:50.970Z,4.55
2022-10-11T01:48:19.473Z,5.20
2022-10-11T01:50:50.411Z,4.78
2022-10-11T01:53:57.099Z,4.35
2022-10-11T01:56:40.197Z,4.53
2022-10-11T01:59:20.800Z,5.28
2022-10-11T02:01:58.061Z,4.03
2022-10-11T02:04:32.323Z,4.03
2022-10-11T02:07:07.088Z,5.35
2022-10-11T02:09:41.175Z,4.35
2022-10-11T02:12:13.399Z,4.35
2022-10-11T02:14:45.549Z,4.53
2022-10-11T02:17:18.023Z,4.03
2022-10-11T02:19:48.857Z,4.43
2022-10-11T02:22:20.759Z,5.25
2022-10-11T02:24:52.762Z,4.57
2022-10-11T02:27:25.402Z,5.03
2022-10-11T02:29:55.688Z,4.38
2022-10-11T02:32:26.650Z,4.55
2022-10-11T02:34:56.967Z,3.83
2022-10-11T02:37:31.725Z,4.40
2022-10-11T02:40:07.594Z,3.60
2022-10-11T02:42:40.337Z,3.70
2022-10-11T02:45:15.473Z,3.70
2022-10-11T02:47:45.588Z,3.80
2022-10-11T02:50:14.294Z,4.20
2022-10-11T02:52:42.520Z,4.40
2022-10-11T02:55:12.143Z,4.03
2022-10-11T02:57:40.184Z,3.05
2022-10-11T03:00:09.195Z,3.90
2022-10-11T03:02:37.310Z,3.55
2022-10-11T03:05:06.982Z,3.63
2022-10-11T03:07:35.015Z,3.10
2022-10-11T03:10:04.220Z,3.90
2022-10-11T03:12:32.281Z,3.45
2022-10-11T03:15:00.292Z,3.50
2022-10-11T03:17:36.680Z,3.70
2022-10-11T03:20:08.134Z,3.40
2022-10-11T03:22:36.480Z,3.50
2022-10-11T03:25:05.055Z,3.22
2022-10-11T03:27:33.662Z,3.90
2022-10-11T03:30:02.118Z,3.67
2022-10-11T03:32:30.500Z,3.53
2022-10-11T03:34:58.740Z,3.50
2022-10-11T03:37:28.332Z,3.35
2022-10-11T03:39:56.441Z,3.40
2022-10-11T03:42:24.445Z,3.40
2022-10-11T03:44:52.553Z,3.63
2022-10-11T03:47:20.790Z,3.63
2022-10-11T03:49:48.773Z,4.05
2022-10-11T03:52:16.837Z,3.50
2022-10-11T03:54:46.295Z,3.92
2022-10-11T03:57:14.361Z,3.92
2022-10-11T03:59:42.405Z,4.22
2022-10-11T04:02:10.838Z,4.45
2022-10-11T04:04:38.995Z,5.32
2022-10-11T04:07:07.146Z,5.15
2022-10-11T04:09:35.900Z,5.45
2022-10-11T04:12:05.568Z,4.60
2022-10-11T04:14:33.753Z,5.38
2022-10-11T04:17:01.771Z,6.00
2022-10-11T04:19:30.040Z,5.53
2022-10-11T04:21:58.057Z,5.68
2022-10-11T04:24:26.148Z,5.43
2022-10-11T04:26:54.164Z,6.40
2022-10-11T04:29:24.603Z,5.82
2022-10-11T04:31:54.748Z,6.55
2022-10-11T04:34:22.802Z,7.28
2022-10-11T04:36:51.007Z,7.03
2022-10-11T04:39:19.073Z,5.93
2022-10-11T04:41:47.161Z,5.30
2022-10-11T04:44:15.277Z,6.72
2022-10-11T04:46:44.978Z,6.47
2022-10-11T04:49:12.977Z,6.63
2022-10-11T04:51:41.195Z,6.88
2022-10-11T04:54:09.147Z,5.75
2022-10-11T04:56:37.278Z,5.40
2022-10-11T04:59:05.402Z,5.13
2022-10-11T05:01:34.022Z,5.55
2022-10-11T05:04:03.389Z,5.88
2022-10-11T05:06:31.626Z,5.35
2022-10-11T05:09:00.580Z,5.75
2022-10-11T05:11:28.875Z,5.35
2022-10-11T05:13:56.847Z,5.43
2022-10-11T05:16:24.948Z,5.43
2022-10-11T05:18:53.119Z,6.07
2022-10-11T05:21:24.233Z,5.65
2022-10-11T05:23:53.827Z,6.43
2022-10-11T05:26:22.797Z,6.03
2022-10-11T05:28:51.036Z,5.47
2022-10-11T05:31:19.456Z,5.43
2022-10-11T05:33:47.869Z,5.97
2022-10-11T05:36:16.276Z,5.75
2022-10-11T05:38:46.082Z,6.05
2022-10-11T05:41:15.852Z,6.47
2022-10-11T05:43:45.838Z,6.60
2022-10-11T05:46:14.232Z,9.73
2022-10-11T05:48:43.866Z,8.82
2022-10-11T05:51:13.238Z,7.03
2022-10-11T05:53:41.326Z,6.55
2022-10-11T05:56:20.344Z,6.00
2022-10-11T05:58:48.501Z,6.30
2022-10-11T06:01:20.810Z,5.30
2022-10-11T06:03:49.171Z,8.23
2022-10-11T06:06:17.648Z,6.30
2022-10-11T06:08:46.156Z,6.40
2022-10-11T06:11:16.505Z,5.75
2022-10-11T06:13:46.167Z,5.57
2022-10-11T06:16:14.540Z,5.40
2022-10-11T06:18:42.921Z,5.65
2022-10-11T06:21:11.212Z,5.82
2022-10-11T06:23:39.275Z,6.03
2022-10-11T06:26:09.903Z,7.32
2022-10-11T06:28:39.224Z,6.75
2022-10-11T06:31:09.217Z,6.75
2022-10-11T06:33:37.406Z,7.43
2022-10-11T06:36:07.896Z,7.10
2022-10-11T06:38:39.813Z,7.78
2022-10-11T06:41:12.799Z,5.68
2022-10-11T06:43:40.929Z,6.30
2022-10-11T06:46:10.372Z,8.65
2022-10-11T06:48:41.389Z,8.77
2022-10-11T06:51:09.402Z,12.13
2022-10-11T06:53:37.945Z,10.82
2022-10-11T06:56:08.679Z,8.80
2022-10-11T06:58:37.614Z,9.65
2022-10-11T07:01:07.454Z,7.63
2022-10-11T07:03:37.608Z,8.82
2022-10-11T07:06:08.199Z,8.35
2022-10-11T07:08:36.696Z,8.13
2022-10-11T07:11:06.815Z,10.10
2022-10-11T07:13:35.088Z,10.57
2022-10-11T07:16:03.771Z,9.55
2022-10-11T07:18:32.759Z,9.48
2022-10-11T07:21:04.401Z,10.02
2022-10-11T07:23:32.795Z,9.15
2022-10-11T07:26:01.333Z,9.90
2022-10-11T07:28:30.708Z,8.73
2022-10-11T07:30:59.273Z,10.25
2022-10-11T07:33:27.557Z,8.65
2022-10-11T07:35:58.924Z,8.30
2022-10-11T07:38:28.837Z,9.98
2022-10-11T07:40:57.539Z,9.50
2022-10-11T07:43:25.785Z,9.88
2022-10-11T07:45:55.621Z,7.65
2022-10-11T07:48:24.041Z,7.63
2022-10-11T07:50:52.036Z,9.95
2022-10-11T07:53:20.256Z,9.63
2022-10-11T07:55:49.631Z,10.75
2022-10-11T07:58:17.710Z,24.08
2022-10-11T08:00:45.789Z,14.02
2022-10-11T08:03:14.018Z,11.82
2022-10-11T08:05:42.072Z,10.52
2022-10-11T08:08:10.269Z,10.68
2022-10-11T08:10:39.320Z,10.43
2022-10-11T08:13:08.688Z,15.85
2022-10-11T08:15:36.769Z,11.27
2022-10-11T08:18:04.959Z,10.80
2022-10-11T08:20:33.158Z,10.45
2022-10-11T08:23:01.521Z,12.98
2022-10-11T08:25:29.656Z,11.15
2022-10-11T08:27:57.907Z,12.20
2022-10-11T08:30:27.307Z,11.95
2022-10-11T08:32:55.392Z,12.57
2022-10-11T08:35:23.349Z,11.15
2022-10-11T08:37:51.475Z,10.90
2022-10-11T08:40:22.277Z,11.50
2022-10-11T08:42:58.449Z,14.27
2022-10-11T08:48:10.240Z,11.10
2022-10-11T08:50:39.775Z,13.07
2022-10-11T08:53:17.271Z,12.50
2022-10-11T08:55:49.131Z,15.65
2022-10-11T08:58:20.940Z,14.40
2022-10-11T09:00:55.225Z,13.48
2022-10-11T09:03:30.779Z,14.63
2022-10-11T09:06:09.386Z,21.58
2022-10-11T09:08:51.170Z,13.70
2022-10-11T09:11:26.360Z,13.63
2022-10-11T09:14:17.029Z,13.65
2022-10-11T09:16:59.589Z,17.70
2022-10-11T09:19:48.303Z,15.73
2022-10-11T09:22:25.714Z,14.98
2022-10-11T09:25:08.494Z,13.85
2022-10-11T09:28:01.326Z,14.07
2022-10-11T09:30:27.418Z,13.82
2022-10-11T09:33:14.493Z,13.73
2022-10-11T09:35:46.492Z,14.98
2022-10-11T09:38:25.658Z,15.15
2022-10-11T09:41:04.501Z,15.00
2022-10-11T09:43:32.654Z,14.95
2022-10-11T09:46:00.766Z,13.30
2022-10-11T09:48:38.305Z,14.55
2022-10-11T09:51:12.785Z,16.75
2022-10-11T09:53:53.117Z,14.07
2022-10-11T09:56:22.473Z,15.55
2022-10-11T09:58:50.555Z,16.02
2022-10-11T10:01:28.265Z,15.50
2022-10-11T10:04:09.758Z,13.98
2022-10-11T10:06:38.260Z,13.93
2022-10-11T10:09:26.721Z,15.57
2022-10-11T10:11:55.419Z,13.88
2022-10-11T10:14:28.034Z,13.93
2022-10-11T10:17:02.532Z,13.85
2022-10-11T10:19:44.514Z,15.77
2022-10-11T10:22:21.368Z,13.98
2022-10-11T10:24:50.459Z,14.52
2022-10-11T10:27:22.214Z,11.00
2022-10-11T10:30:05.240Z,11.25
2022-10-11T10:32:44.901Z,13.95
2022-10-11T10:35:27.297Z,11.77
2022-10-11T10:38:13.255Z,16.55
2022-10-11T10:40:44.699Z,16.13
2022-10-11T10:43:16.553Z,18.52
2022-10-11T10:46:09.901Z,17.77
2022-10-11T10:49:23.224Z,13.63
2022-10-11T10:51:43.601Z,14.57
2022-10-11T10:54:20.748Z,15.80
2022-10-11T10:56:54.575Z,17.98
2022-10-11T10:59:58.984Z,17.48
2022-10-11T11:02:40.631Z,17.20
2022-10-11T11:05:19.013Z,17.02
2022-10-11T11:07:54.224Z,18.13
2022-10-11T11:10:24.893Z,12.27
2022-10-11T11:12:59.280Z,18.52
2022-10-11T11:15:35.569Z,17.70
2022-10-11T11:18:18.201Z,19.08
2022-10-11T11:20:58.588Z,12.10
2022-10-11T11:23:36.852Z,16.27
2022-10-11T11:26:13.423Z,15.35
2022-10-11T11:29:12.373Z,17.00
2022-10-11T11:31:53.956Z,13.13
2022-10-11T11:34:26.719Z,19.65
2022-10-11T11:36:58.395Z,21.90
2022-10-11T11:39:32.284Z,22.85
2022-10-11T11:42:06.549Z,22.73
2022-10-11T11:44:39.453Z,25.88
2022-10-11T11:47:17.791Z,30.15
2022-10-11T11:49:50.287Z,32.08
2022-10-11T11:52:26.831Z,29.92
2022-10-11T11:55:06.555Z,37.72
2022-10-11T11:57:48.330Z,57.30
2022-10-11T12:00:20.189Z,26.05
2022-10-11T12:02:54.231Z,30.85
2022-10-11T12:05:26.006Z,45.72
2022-10-11T12:07:58.416Z,50.45
2022-10-11T12:10:32.395Z,82.38
2022-10-11T12:13:18.696Z,89.18
2022-10-11T12:16:10.837Z,82.15
2022-10-11T12:18:54.294Z,85.95
2022-10-11T12:21:28.869Z,130.93
2022-10-11T12:23:58.470Z,200.98
2022-10-11T12:26:40.114Z,19.55
2022-10-11T12:29:54.757Z,24.58
2022-10-11T12:32:51.852Z,12.75
2022-10-11T12:36:04.059Z,12.30
2022-10-11T12:38:37.273Z,13.52
2022-10-11T12:41:46.889Z,17.23
2022-10-11T12:44:23.716Z,19.45
2022-10-11T12:47:17.874Z,16.50
2022-10-11T12:49:58.135Z,15.45
2022-10-11T12:52:36.812Z,20.73
2022-10-11T12:55:22.425Z,24.38
2022-10-11T12:58:24.190Z,57.95
2022-10-11T13:01:22.069Z,15.43
2022-10-11T13:04:00.873Z,18.17
2022-10-11T13:06:32.022Z,30.10
2022-10-11T13:09:05.520Z,26.38
2022-10-11T13:11:37.548Z,31.65
2022-10-11T13:14:12.494Z,27.13
2022-10-11T13:16:50.277Z,36.60
2022-10-11T13:19:18.627Z,41.28
2022-10-11T13:21:52.565Z,46.58
2022-10-11T13:24:21.561Z,49.70
2022-10-11T13:26:51.871Z,73.95
2022-10-11T13:29:27.374Z,103.18
2022-10-11T13:31:57.117Z,61.40
2022-10-11T13:34:26.083Z,72.05
2022-10-11T13:36:58.657Z,81.78
2022-10-11T13:39:31.452Z,95.53
2022-10-11T13:42:00.934Z,90.43
2022-10-11T13:44:29.189Z,94.78
2022-10-11T13:46:58.610Z,74.85
2022-10-11T13:49:31.475Z,110.80
2022-10-11T13:52:02.389Z,117.75
2022-10-11T13:54:58.909Z,88.93
2022-10-11T13:57:36.105Z,91.50
2022-10-11T14:00:21.774Z,116.40
2022-10-11T14:02:56.062Z,131.48
2022-10-11T14:05:30.398Z,61.00
2022-10-11T14:07:59.556Z,82.25
2022-10-11T14:10:28.649Z,88.30
2022-10-11T14:13:08.136Z,60.83
2022-10-11T14:15:38.033Z,84.40
2022-10-11T14:18:35.781Z,91.68
2022-10-11T14:21:26.141Z,131.40
2022-10-11T14:23:56.415Z,145.35
2022-10-11T14:26:26.198Z,116.25
2022-10-11T14:28:58.642Z,127.53
2022-10-11T14:31:30.355Z,96.78
2022-10-11T14:34:00.203Z,89.03
2022-10-11T14:36:29.363Z,111.30
2022-10-11T14:38:57.478Z,82.38
2022-10-11T14:41:25.609Z,90.07
2022-10-11T14:43:56.307Z,94.57
2022-10-11T14:46:27.048Z,61.17
2022-10-11T14:48:56.679Z,119.22
2022-10-11T14:51:31.986Z,56.60
2022-10-11T14:54:00.119Z,98.93
2022-10-11T14:56:28.320Z,120.13
2022-10-11T14:58:56.410Z,87.07
2022-10-11T15:01:25.094Z,99.95
2022-10-11T15:03:53.409Z,86.18
2022-10-11T15:06:24.649Z,107.93
2022-10-11T15:08:54.248Z,128.45
2022-10-11T15:11:24.221Z,103.80
2022-10-11T15:13:52.363Z,108.72
2022-10-11T15:16:21.980Z,142.80
2022-10-11T15:18:51.037Z,120.85
2022-10-11T15:21:20.806Z,147.95
2022-10-11T15:23:50.768Z,120.72
2022-10-11T15:26:23.986Z,117.18
2022-10-11T15:28:52.997Z,108.90
2022-10-11T15:31:21.837Z,158.68
2022-10-11T15:33:50.037Z,117.72
2022-10-11T15:36:20.238Z,124.88
2022-10-11T15:38:49.138Z,111.93
2022-10-11T15:41:20.292Z,102.10
2022-10-11T15:43:49.636Z,122.82
2022-10-11T15:46:19.628Z,172.93
2022-10-11T15:48:48.265Z,176.30
2022-10-11T15:51:16.792Z,159.65
2022-10-11T15:53:45.110Z,258.85
2022-10-11T15:56:16.780Z,213.02
2022-10-11T15:58:46.961Z,208.60
2022-10-11T16:01:16.976Z,198.90
2022-10-11T16:03:45.907Z,212.85
2022-10-11T16:06:14.087Z,197.73
2022-10-11T16:08:42.370Z,179.60
2022-10-11T16:11:11.893Z,8.60
2022-10-11T16:13:40.434Z,7.05
2022-10-11T16:16:10.972Z,7.10
2022-10-11T16:18:39.598Z,6.47
2022-10-11T16:21:09.636Z,5.13
2022-10-11T16:23:38.221Z,6.70
2022-10-11T16:26:08.937Z,6.60
2022-10-11T16:28:37.687Z,7.18
2022-10-11T16:31:09.888Z,6.93
2022-10-11T16:33:45.506Z,7.70
2022-10-11T16:36:36.070Z,7.82
2022-10-11T16:39:07.762Z,7.38
2022-10-11T16:41:35.941Z,14.85
2022-10-11T16:44:05.331Z,19.45
2022-10-11T16:46:35.990Z,15.98
2022-10-11T16:49:04.710Z,11.20
2022-10-11T16:51:32.748Z,9.25
2022-10-11T16:54:00.848Z,10.70
2022-10-11T16:56:28.982Z,12.93
2022-10-11T16:58:57.281Z,448.20
2022-10-11T17:01:26.145Z,674.55
2022-10-11T17:03:55.790Z,755.08
2022-10-11T17:06:24.933Z,874.15
2022-10-11T17:08:53.142Z,549.75
2022-10-11T17:11:22.346Z,661.88
2022-10-11T17:13:53.494Z,787.70
2022-10-11T17:16:22.859Z,811.40
2022-10-11T17:18:51.026Z,852.63
2022-10-11T17:21:24.603Z,786.58
2022-10-11T17:23:52.720Z,861.85
2022-10-11T17:26:23.263Z,12.07
2022-10-11T17:28:51.435Z,15.55
2022-10-11T17:31:19.509Z,13.98
2022-10-11T17:33:47.764Z,16.92
2022-10-11T17:36:21.458Z,11.23
2022-10-11T17:38:50.145Z,8.27
2022-10-11T17:41:18.844Z,7.47
2022-10-11T17:43:47.536Z,8.90
2022-10-11T17:46:17.170Z,8.85
2022-10-11T17:48:45.507Z,8.20
2022-10-11T17:51:15.825Z,7.90
2022-10-11T17:53:45.723Z,8.00
2022-10-11T17:56:15.705Z,7.35
2022-10-11T17:58:44.477Z,7.43
2022-10-11T18:01:16.709Z,8.38
2022-10-11T18:03:50.854Z,7.10
2022-10-11T18:06:18.953Z,6.55
2022-10-11T18:08:48.366Z,6.28
2022-10-11T18:11:18.168Z,6.03
2022-10-11T18:13:49.036Z,7.60
2022-10-11T18:16:19.405Z,6.75
2022-10-11T18:18:47.607Z,6.68
2022-10-11T18:21:16.262Z,6.90
2022-10-11T18:23:44.236Z,8.00
2022-10-11T18:26:16.450Z,8.50
2022-10-11T18:28:45.219Z,9.68
2022-10-11T18:31:15.467Z,8.43
2022-10-11T18:33:45.965Z,8.27
2022-10-11T18:36:16.442Z,8.90
2022-10-11T18:38:46.574Z,8.13
2022-10-11T18:41:18.793Z,8.02
2022-10-11T18:43:50.689Z,7.65
2022-10-11T18:46:19.069Z,7.97
2022-10-11T18:48:50.138Z,8.55
2022-10-11T18:51:20.303Z,9.70
2022-10-11T18:53:49.346Z,9.20
2022-10-11T18:56:21.587Z,9.30
2022-10-11T18:58:50.667Z,9.75
2022-10-11T19:01:20.902Z,7.85
2022-10-11T19:03:52.390Z,9.23
2022-10-11T19:06:22.751Z,8.05
2022-10-11T19:08:53.031Z,8.20
2022-10-11T19:11:25.284Z,8.60
2022-10-11T19:13:57.351Z,7.28
2022-10-11T19:16:27.023Z,7.07
2022-10-11T19:18:55.326Z,7.60
2022-10-11T19:21:23.631Z,6.60
2022-10-11T19:23:52.468Z,7.03
2022-10-11T19:26:23.763Z,7.22
2022-10-11T19:28:57.243Z,8.00
2022-10-11T19:31:25.688Z,7.47
2022-10-11T19:33:54.667Z,7.18
2022-10-11T19:36:22.781Z,8.18
2022-10-11T19:38:52.034Z,7.60
2022-10-11T19:41:21.181Z,8.02
2022-10-11T19:43:52.381Z,8.90
2022-10-11T19:46:44.390Z,9.15
2022-10-11T19:49:11.989Z,8.80
2022-10-11T19:51:39.957Z,8.82
2022-10-11T19:54:11.605Z,8.27
2022-10-11T19:56:39.713Z,8.35
2022-10-11T19:59:09.291Z,8.75
2022-10-11T20:01:38.419Z,8.63
2022-10-11T20:04:08.391Z,8.63
2022-10-11T20:06:39.737Z,8.60
2022-10-11T20:09:28.595Z,8.48
2022-10-11T20:11:56.500Z,8.02
2022-10-11T20:14:25.989Z,8.05
2022-10-11T20:16:54.558Z,8.70
2022-10-11T20:19:27.777Z,7.32
2022-10-11T20:21:58.571Z,8.02
2022-10-11T20:24:28.820Z,7.78
2022-10-11T20:26:56.923Z,8.23
2022-10-11T20:29:26.904Z,7.50
2022-10-11T20:31:56.289Z,6.45
2022-10-11T20:34:24.322Z,7.60
2022-10-11T20:36:52.382Z,6.38
2022-10-11T20:39:20.390Z,5.72
2022-10-11T20:41:48.552Z,6.47
2022-10-11T20:44:17.824Z,7.20
2022-10-11T20:46:47.347Z,6.10
2022-10-11T20:49:15.354Z,6.20
2022-10-11T20:51:43.850Z,6.57
2022-10-11T20:54:12.321Z,5.90
2022-10-11T20:56:40.860Z,6.40
2022-10-11T20:59:10.095Z,6.90
2022-10-11T21:01:40.331Z,6.93
2022-10-11T21:04:18.502Z,6.57
2022-10-11T21:06:47.354Z,5.80
2022-10-11T21:09:16.841Z,6.45
2022-10-11T21:11:45.516Z,6.35
2022-10-11T21:14:13.537Z,7.00
2022-10-11T21:16:42.010Z,6.82
2022-10-11T21:19:15.154Z,6.65
2022-10-11T21:21:43.765Z,6.55
2022-10-11T21:24:11.828Z,6.32
2022-10-11T21:26:40.100Z,5.63
2022-10-11T21:29:08.594Z,6.47
2022-10-11T21:31:36.798Z,5.85
2022-10-11T21:34:07.372Z,7.32
2022-10-11T21:36:36.796Z,5.95
2022-10-11T21:39:04.818Z,6.05
2022-10-11T21:41:33.981Z,7.13
2022-10-11T21:44:02.774Z,6.88
2022-10-11T21:46:54.463Z,5.75
2022-10-11T21:49:20.603Z,5.53
2022-10-11T21:51:50.161Z,7.55
2022-10-11T21:54:18.839Z,8.00
2022-10-11T21:56:46.863Z,9.63
2022-10-11T21:59:14.982Z,10.60
2022-10-11T22:01:43.907Z,13.02
2022-10-11T22:04:12.487Z,6.88
2022-10-11T22:06:40.879Z,7.40
2022-10-11T22:09:10.574Z,8.10
2022-10-11T22:11:39.042Z,9.82
2022-10-11T22:14:07.242Z,16.63
2022-10-11T22:16:35.920Z,10.65
2022-10-11T22:19:04.106Z,13.95
2022-10-11T22:21:32.215Z,7.38
2022-10-11T22:24:00.362Z,7.88
2022-10-11T22:26:31.643Z,7.05
2022-10-11T22:29:00.503Z,14.55
2022-10-11T22:31:30.780Z,13.45
2022-10-11T22:34:00.727Z,12.95
2022-10-11T22:36:30.486Z,13.02
2022-10-11T22:38:59.059Z,13.98
2022-10-11T22:41:28.836Z,17.92
2022-10-11T22:43:56.888Z,9.07
2022-10-11T22:46:24.941Z,7.78
2022-10-11T22:48:53.787Z,8.82
2022-10-11T22:51:21.782Z,7.68
2022-10-11T22:53:49.786Z,10.10
2022-10-11T22:56:17.808Z,6.63
2022-10-11T22:58:47.216Z,7.00
2022-10-11T23:01:16.882Z,7.38
2022-10-11T23:03:48.252Z,9.13
2022-10-11T23:06:16.322Z,7.05
2022-10-11T23:08:44.411Z,10.27
2022-10-11T23:11:13.388Z,8.43
2022-10-11T23:13:41.391Z,8.55
2022-10-11T23:16:12.911Z,10.60
2022-10-11T23:18:41.016Z,7.28
2022-10-11T23:21:09.688Z,8.13
2022-10-11T23:23:39.671Z,7.05
2022-10-11T23:26:10.086Z,7.78
2022-10-11T23:28:38.901Z,7.50
2022-10-11T23:31:10.663Z,7.57
2022-10-11T23:33:39.183Z,7.38
2022-10-11T23:36:13.363Z,7.35
2022-10-11T23:38:41.603Z,8.27
2022-10-11T23:41:09.554Z,7.95
2022-10-11T23:43:37.708Z,8.48
2022-10-11T23:46:06.001Z,11.02
2022-10-11T23:48:35.750Z,11.18
2022-10-11T23:51:03.729Z,11.90
2022-10-11T23:53:31.846Z,7.88
2022-10-11T23:55:59.901Z,7.38
2022-10-11T23:58:28.072Z,8.10
